Time;durP1;ratioP1;P1;durP2;ratioP2;P2;SDS_P1;SDS_P2;PMS_P1;PMS_P2;Temp;Humidity;BMP_temperature;BMP_pressure;BME280_temperature;BME280_humidity;BME280_pressure;Samples;Min_cycle;Max_cycle;Signal;HPM_P1;HPM_P2
2023/03/23 00:01:01;;;;;;;9.82;3.95;;;;;;;10.42;100.00;100089.38;5070632;28;20057;-50
2023/03/23 00:03:31;;;;;;;8.65;3.97;;;;;;;10.43;100.00;100085.75;5070763;28;20033;-51
2023/03/23 00:06:04;;;;;;;8.25;3.50;;;;;;;10.38;100.00;100096.63;5071857;28;20097;-51
2023/03/23 00:08:31;;;;;;;8.65;4.00;;;;;;;10.40;100.00;100093.88;5070707;28;20067;-51
2023/03/23 00:11:00;;;;;;;8.18;3.35;;;;;;;10.39;100.00;100086.94;5070040;28;20137;-52
2023/03/23 00:13:30;;;;;;;8.75;3.50;;;;;;;10.38;100.00;100082.66;5068225;28;20041;-49
2023/03/23 00:15:57;;;;;;;7.10;3.60;;;;;;;10.38;100.00;100075.59;5066558;28;20036;-51
2023/03/23 00:18:25;;;;;;;8.45;3.63;;;;;;;10.39;100.00;100082.53;5066793;28;20060;-52
2023/03/23 00:20:54;;;;;;;8.80;3.58;;;;;;;10.37;100.00;100079.19;5071143;28;20040;-51
2023/03/23 00:23:24;;;;;;;9.05;3.53;;;;;;;10.39;100.00;100095.69;5070593;28;20457;-52
2023/03/23 00:25:56;;;;;;;9.07;3.40;;;;;;;10.40;100.00;100096.50;5071855;28;20507;-50
2023/03/23 00:28:24;;;;;;;8.50;3.92;;;;;;;10.40;100.00;100091.25;5075663;28;20398;-50
2023/03/23 00:31:03;;;;;;;8.02;3.45;;;;;;;10.42;100.00;100076.22;5075843;28;20127;-50
2023/03/23 00:33:33;;;;;;;7.25;3.55;;;;;;;10.48;100.00;100070.47;5075220;28;20114;-51
2023/03/23 00:36:02;;;;;;;7.97;3.78;;;;;;;10.45;100.00;100076.81;5071008;28;20052;-51
2023/03/23 00:38:29;;;;;;;6.53;3.22;;;;;;;10.48;100.00;100078.34;5072258;28;20509;-53
2023/03/23 00:40:57;;;;;;;7.57;3.20;;;;;;;10.48;100.00;100089.72;5074506;28;20059;-52
2023/03/23 00:43:28;;;;;;;5.93;2.92;;;;;;;10.45;100.00;100095.19;5074169;28;20424;-53
2023/03/23 00:45:56;;;;;;;7.70;3.50;;;;;;;10.45;100.00;100095.19;5075308;28;20041;-53
2023/03/23 00:48:25;;;;;;;7.63;3.92;;;;;;;10.47;100.00;100090.69;5074284;28;20052;-52
2023/03/23 00:50:52;;;;;;;9.82;3.95;;;;;;;10.45;100.00;100086.50;5069900;28;20080;-52
2023/03/23 00:53:20;;;;;;;10.02;3.85;;;;;;;10.47;100.00;100093.31;5069758;28;20061;-52
2023/03/23 00:55:49;;;;;;;7.75;3.63;;;;;;;10.52;100.00;100100.84;5070067;28;20052;-49
2023/03/23 00:58:17;;;;;;;8.38;3.92;;;;;;;10.48;100.00;100089.72;5072851;28;20056;-50
2023/03/23 01:00:44;;;;;;;7.50;3.65;;;;;;;10.49;100.00;100086.13;5073684;28;20055;-52
2023/03/23 01:03:11;;;;;;;8.50;3.42;;;;;;;10.47;100.00;100082.78;5073617;28;20041;-51
2023/03/23 01:05:40;;;;;;;10.38;3.75;;;;;;;10.46;100.00;100077.66;5074946;28;20040;-52
2023/03/23 01:08:08;;;;;;;11.55;3.80;;;;;;;10.46;100.00;100072.41;5074789;28;20539;-50
2023/03/23 01:10:38;;;;;;;8.45;3.85;;;;;;;10.49;100.00;100061.63;5073459;28;20041;-49
2023/03/23 01:13:06;;;;;;;8.73;3.97;;;;;;;10.51;100.00;100062.34;5073401;28;20047;-52
2023/03/23 01:15:33;;;;;;;7.35;3.42;;;;;;;10.48;100.00;100055.56;5074669;28;20049;-50
2023/03/23 01:18:00;;;;;;;7.63;3.47;;;;;;;10.45;100.00;100034.75;5072497;28;20040;-51
2023/03/23 01:20:28;;;;;;;6.82;3.70;;;;;;;10.51;100.00;100025.53;5070382;28;20044;-49
2023/03/23 01:23:00;;;;;;;7.88;4.18;;;;;;;10.45;100.00;100021.59;5071200;28;20060;-49
2023/03/23 01:25:28;;;;;;;8.05;4.10;;;;;;;10.45;100.00;100015.50;5071378;28;20145;-50
2023/03/23 01:27:56;;;;;;;7.50;3.75;;;;;;;10.46;100.00;100015.38;5073139;28;20037;-50
2023/03/23 01:30:24;;;;;;;10.23;3.80;;;;;;;10.44;100.00;100029.59;5072895;28;20071;-52
2023/03/23 01:32:52;;;;;;;8.57;4.18;;;;;;;10.47;100.00;100022.34;5071600;28;20052;-51
2023/03/23 01:35:19;;;;;;;9.88;4.05;;;;;;;10.45;100.00;99989.22;5070734;28;20518;-50
2023/03/23 01:37:47;;;;;;;7.47;4.07;;;;;;;10.51;100.00;99980.03;5071009;28;20102;-49
2023/03/23 01:40:14;;;;;;;9.55;3.90;;;;;;;10.51;100.00;99980.03;5070509;28;20123;-51
2023/03/23 01:42:42;;;;;;;6.32;3.35;;;;;;;10.55;100.00;99987.56;5070940;28;20045;-53
2023/03/23 01:45:34;;;;;;;7.10;3.70;;;;;;;10.58;100.00;99965.44;5069158;28;20052;-48
2023/03/23 01:48:08;;;;;;;9.20;3.40;;;;;;;10.54;100.00;99969.25;5071585;28;20045;-52
2023/03/23 01:50:41;;;;;;;7.47;3.58;;;;;;;10.49;100.00;99962.56;5069447;28;20174;-49
2023/03/23 01:53:11;;;;;;;8.95;3.55;;;;;;;10.50;100.00;99979.19;5070502;28;20055;-53
2023/03/23 01:55:41;;;;;;;8.13;3.80;;;;;;;10.47;100.00;99982.91;5070813;28;20053;-53
2023/03/23 01:58:10;;;;;;;7.03;3.58;;;;;;;10.44;100.00;99966.50;5068872;28;20079;-52
2023/03/23 02:00:40;;;;;;;6.22;3.75;;;;;;;10.43;100.00;99968.31;5069292;28;20133;-53
2023/03/23 02:03:10;;;;;;;8.95;3.83;;;;;;;10.49;100.00;99977.50;5069984;28;20426;-50
2023/03/23 02:05:40;;;;;;;7.75;3.67;;;;;;;10.47;100.00;99982.91;5069829;28;20045;-52
2023/03/23 02:08:08;;;;;;;8.35;4.05;;;;;;;10.44;100.00;99988.41;5070650;28;20414;-53
2023/03/23 02:10:37;;;;;;;8.38;4.20;;;;;;;10.49;100.00;99975.72;5069931;28;20048;-52
2023/03/23 02:13:07;;;;;;;7.55;4.03;;;;;;;10.50;100.00;99979.19;5069872;28;20502;-53
2023/03/23 02:15:45;;;;;;;8.48;3.63;;;;;;;10.49;100.00;99978.34;5073373;28;20041;-52
2023/03/23 02:18:26;;;;;;;8.18;3.97;;;;;;;10.51;100.00;99972.13;5055562;28;20095;-52
2023/03/23 02:21:14;;;;;;;10.13;4.20;;;;;;;10.53;100.00;99963.16;5073517;28;20052;-52
2023/03/23 02:23:54;;;;;;;7.38;3.85;;;;;;;10.56;100.00;99964.72;5072157;28;20048;-53
2023/03/23 02:26:34;;;;;;;8.07;4.35;;;;;;;10.53;100.00;99952.66;5073238;28;20051;-53
2023/03/23 02:29:35;;;;;;;6.43;3.50;;;;;;;10.54;100.00;99945.59;5073008;28;20040;-52
2023/03/23 02:32:32;;;;;;;7.55;3.95;;;;;;;10.55;100.00;99948.13;5068873;28;20056;-53
2023/03/23 02:35:04;;;;;;;9.55;4.18;;;;;;;10.54;100.00;99941.19;5069454;28;20056;-51
2023/03/23 02:37:37;;;;;;;7.13;3.50;;;;;;;10.56;100.00;99946.31;5068264;28;20040;-52
2023/03/23 02:40:11;;;;;;;8.25;3.88;;;;;;;10.56;100.00;99946.31;5071529;28;20110;-52
2023/03/23 02:42:42;;;;;;;7.50;3.80;;;;;;;10.57;100.00;99946.19;5072315;28;20110;-50
2023/03/23 02:45:12;;;;;;;8.57;3.80;;;;;;;10.58;100.00;99952.28;5070196;28;20051;-49
2023/03/23 02:47:40;;;;;;;7.55;4.00;;;;;;;10.68;100.00;99950.59;5069009;28;20053;-49
2023/03/23 02:50:14;;;;;;;7.80;3.83;;;;;;;10.67;100.00;99956.00;5067854;28;20044;-52
2023/03/23 02:52:44;;;;;;;7.80;3.60;;;;;;;10.67;100.00;99953.34;5068199;28;20051;-51
2023/03/23 02:55:14;;;;;;;7.30;3.47;;;;;;;10.73;100.00;99945.81;5068228;28;20040;-51
2023/03/23 02:57:43;;;;;;;8.80;3.80;;;;;;;10.73;100.00;99947.59;5069142;28;20041;-51
2023/03/23 03:00:15;;;;;;;8.63;4.10;;;;;;;10.72;100.00;99935.44;5071435;28;20048;-53
2023/03/23 03:02:47;;;;;;;7.93;4.15;;;;;;;10.72;100.00;99948.56;5072762;28;20072;-51
2023/03/23 03:05:27;;;;;;;7.70;4.28;;;;;;;10.75;100.00;99940.44;5071438;28;20052;-51
2023/03/23 03:08:07;;;;;;;8.25;3.38;;;;;;;10.74;100.00;99950.09;5069287;28;20056;-50
2023/03/23 03:10:43;;;;;;;8.63;4.30;;;;;;;10.72;100.00;99936.25;5069683;28;20075;-51
2023/03/23 03:13:17;;;;;;;8.57;4.25;;;;;;;10.79;100.00;99947.94;5067972;28;20063;-48
2023/03/23 03:15:51;;;;;;;7.78;4.15;;;;;;;10.73;100.00;99947.59;5050622;28;20102;-51
2023/03/23 03:18:23;;;;;;;6.70;3.70;;;;;;;10.75;100.00;99956.22;5071108;28;20349;-50
2023/03/23 03:20:56;;;;;;;9.57;3.60;;;;;;;10.76;100.00;99952.63;5068701;28;20059;-51
2023/03/23 03:23:27;;;;;;;8.02;3.65;;;;;;;10.75;100.00;99950.94;5069226;28;20056;-50
2023/03/23 03:25:57;;;;;;;7.82;3.58;;;;;;;10.75;100.00;99940.44;5071150;28;20041;-51
2023/03/23 03:28:26;;;;;;;7.13;3.70;;;;;;;10.77;100.00;99934.09;5072367;28;20040;-52
2023/03/23 03:30:56;;;;;;;7.90;3.78;;;;;;;10.80;100.00;99938.28;5071244;28;20456;-49
2023/03/23 03:33:25;;;;;;;7.47;3.72;;;;;;;10.82;100.00;99936.34;5070971;28;20059;-53
2023/03/23 03:35:56;;;;;;;7.20;3.50;;;;;;;10.86;100.00;99931.69;5067206;28;20040;-54
2023/03/23 03:38:23;;;;;;;7.63;3.78;;;;;;;10.89;100.00;99934.88;5069553;28;20048;-52
2023/03/23 03:40:51;;;;;;;7.97;3.67;;;;;;;10.81;100.00;99940.78;5070437;28;20064;-52
2023/03/23 03:43:18;;;;;;;9.77;3.85;;;;;;;10.85;100.00;99936.09;5071616;28;20097;-50
2023/03/23 03:45:45;;;;;;;8.40;3.75;;;;;;;10.87;100.00;99943.88;5071912;28;20430;-52
2023/03/23 03:48:13;;;;;;;8.93;4.22;;;;;;;10.89;100.00;99942.78;5072101;28;20040;-51
2023/03/23 03:50:40;;;;;;;8.98;3.60;;;;;;;10.87;100.00;99934.19;5069817;28;20588;-52
2023/03/23 03:53:08;;;;;;;7.45;3.90;;;;;;;10.84;100.00;99937.06;5068455;28;20094;-49
2023/03/23 03:55:38;;;;;;;7.32;3.90;;;;;;;10.83;100.00;99949.38;5073240;28;20052;-51
2023/03/23 03:58:06;;;;;;;7.75;4.03;;;;;;;10.86;100.00;99943.03;5074944;28;20076;-51
2023/03/23 04:00:33;;;;;;;7.65;3.42;;;;;;;10.92;100.00;99939.91;5074537;28;20572;-51
2023/03/23 04:03:00;;;;;;;7.88;3.30;;;;;;;10.93;100.00;99943.38;5070737;28;20458;-52
2023/03/23 04:05:29;;;;;;;7.78;3.45;;;;;;;10.96;100.00;99930.81;5074497;28;20056;-52
2023/03/23 04:08:01;;;;;;;6.05;3.30;;;;;;;10.94;100.00;99924.81;5071530;28;20060;-53
2023/03/23 04:10:30;;;;;;;7.82;3.70;;;;;;;10.95;100.00;99941.47;5054441;28;20159;-53
2023/03/23 04:12:58;;;;;;;6.90;3.40;;;;;;;10.98;100.00;99938.56;5071650;28;20044;-53
2023/03/23 04:15:26;;;;;;;9.57;3.75;;;;;;;10.98;100.00;99936.78;5070410;28;20052;-51
2023/03/23 04:17:53;;;;;;;7.70;3.55;;;;;;;10.98;100.00;99931.50;5074014;28;20044;-50
2023/03/23 04:20:20;;;;;;;7.75;3.88;;;;;;;10.98;100.00;99936.78;5074383;28;20063;-50
2023/03/23 04:22:49;;;;;;;9.00;3.72;;;;;;;11.00;100.00;99934.00;5075669;28;20070;-50
2023/03/23 04:25:20;;;;;;;7.55;3.90;;;;;;;11.02;100.00;99940.00;5074533;28;20473;-51
2023/03/23 04:27:52;;;;;;;7.30;3.65;;;;;;;11.02;100.00;99936.53;5074422;28;20473;-52
2023/03/23 04:30:20;;;;;;;6.85;3.55;;;;;;;11.03;100.00;99933.78;5071688;28;20442;-52
2023/03/23 04:32:50;;;;;;;6.60;3.60;;;;;;;11.05;100.00;99941.53;5070004;28;20098;-51
2023/03/23 04:35:18;;;;;;;7.35;3.40;;;;;;;11.04;100.00;99929.34;5070346;28;20135;-51
2023/03/23 04:37:46;;;;;;;7.78;3.50;;;;;;;11.06;100.00;99943.22;5071834;28;20510;-50
2023/03/23 04:40:15;;;;;;;9.18;3.63;;;;;;;11.07;100.00;99944.88;5072002;28;20045;-49
2023/03/23 04:42:45;;;;;;;10.70;3.80;;;;;;;11.09;100.00;99949.06;5071948;28;20064;-51
2023/03/23 04:45:15;;;;;;;7.35;3.53;;;;;;;11.08;100.00;99946.56;5075172;28;20111;-50
2023/03/23 04:47:52;;;;;;;6.93;3.17;;;;;;;11.09;100.00;99953.50;5075030;28;20561;-50
2023/03/23 04:50:23;;;;;;;6.43;3.17;;;;;;;11.07;100.00;99960.66;5075280;28;20121;-49
2023/03/23 04:52:53;;;;;;;8.38;3.53;;;;;;;11.06;100.00;99969.53;5075196;28;20426;-51
2023/03/23 04:55:21;;;;;;;8.55;3.25;;;;;;;11.14;100.00;99964.47;5073972;28;20052;-52
2023/03/23 04:57:48;;;;;;;8.35;3.15;;;;;;;11.11;100.00;99967.34;5071198;28;20132;-50
2023/03/23 05:00:17;;;;;;;10.68;3.10;;;;;;;11.11;100.00;99978.72;5071417;28;20139;-52
2023/03/23 05:02:46;;;;;;;6.32;2.95;;;;;;;11.09;100.00;99974.53;5074922;28;20048;-52
2023/03/23 05:05:16;;;;;;;8.30;3.35;;;;;;;11.13;100.00;99979.41;5074888;28;20110;-51
2023/03/23 05:07:43;;;;;;;11.32;3.13;;;;;;;11.10;100.00;99973.59;5071210;28;20515;-52
2023/03/23 05:10:12;;;;;;;9.15;3.50;;;;;;;11.12;100.00;99974.28;5070765;28;20396;-50
2023/03/23 05:12:40;;;;;;;9.40;2.75;;;;;;;11.14;100.00;99962.69;5073308;28;20082;-51
2023/03/23 05:15:08;;;;;;;6.28;2.40;;;;;;;11.13;100.00;99955.75;5073525;28;20040;-52
2023/03/23 05:17:37;;;;;;;9.57;2.63;;;;;;;11.17;100.00;99966.84;5073580;28;20052;-51
2023/03/23 05:20:08;;;;;;;10.80;2.20;;;;;;;11.15;100.00;99971.41;5073101;28;20631;-52
2023/03/23 05:22:36;;;;;;;6.43;2.42;;;;;;;11.10;100.00;99974.41;5069782;28;20048;-52
2023/03/23 05:25:04;;;;;;;8.20;2.63;;;;;;;11.11;100.00;99977.88;5069828;28;20049;-51
2023/03/23 05:27:32;;;;;;;7.10;2.03;;;;;;;11.16;100.00;99976.53;5056118;28;20048;-51
2023/03/23 05:30:01;;;;;;;8.30;2.47;;;;;;;11.13;100.00;99974.16;5055219;28;20068;-51
2023/03/23 05:32:30;;;;;;;9.23;2.30;;;;;;;11.10;100.00;99987.56;5070249;28;20101;-52
2023/03/23 05:35:00;;;;;;;12.23;2.60;;;;;;;11.09;100.00;99985.91;5071309;28;20545;-52
2023/03/23 05:37:32;;;;;;;10.20;2.10;;;;;;;11.09;100.00;99982.44;5071064;28;20057;-51
2023/03/23 05:40:04;;;;;;;6.22;2.10;;;;;;;11.07;100.00;99981.72;5070349;28;20101;-52
2023/03/23 05:42:32;;;;;;;;;;;;;;;11.12;100.00;99984.81;5073111;28;20391;-53
2023/03/23 05:45:00;;;;;;;7.65;2.10;;;;;;;11.10;100.00;99976.22;5072716;28;19920;-52
2023/03/23 05:47:27;;;;;;;8.23;2.20;;;;;;;11.10;100.00;99976.22;5072865;28;20056;-52
2023/03/23 05:49:54;;;;;;;9.00;2.03;;;;;;;11.06;100.00;99973.00;5073958;28;20091;-53
2023/03/23 05:52:24;;;;;;;9.88;2.38;;;;;;;11.11;100.00;99978.72;5055800;28;20098;-54
2023/03/23 05:54:52;;;;;;;8.55;1.75;;;;;;;11.12;100.00;99979.53;5069356;28;20079;-52
2023/03/23 05:57:21;;;;;;;7.95;1.95;;;;;;;11.15;100.00;99984.56;5070428;28;20476;-51
2023/03/23 05:59:49;;;;;;;8.95;1.95;;;;;;;11.12;100.00;99974.28;5072353;28;20043;-52
2023/03/23 06:02:16;;;;;;;10.02;2.20;;;;;;;11.12;100.00;99982.19;5069870;28;20048;-49
2023/03/23 06:04:44;;;;;;;9.40;2.35;;;;;;;11.14;100.00;99989.00;5069030;28;20041;-49
2023/03/23 06:07:14;;;;;;;6.95;1.73;;;;;;;11.13;100.00;99992.56;5070154;28;20063;-50
2023/03/23 06:09:42;;;;;;;6.65;2.10;;;;;;;11.13;100.00;99989.94;5069122;28;20503;-51
2023/03/23 06:12:11;;;;;;;6.60;1.70;;;;;;;11.10;100.00;100008.63;5070052;28;20045;-49
2023/03/23 06:14:38;;;;;;;5.90;1.77;;;;;;;11.12;100.00;100003.22;5071593;28;20438;-50
2023/03/23 06:17:05;;;;;;;8.23;2.17;;;;;;;11.13;100.00;100011.00;5067904;28;20289;-50
2023/03/23 06:19:34;;;;;;;7.00;1.80;;;;;;;11.09;100.00;100008.75;5069745;28;20052;-50
2023/03/23 06:22:01;;;;;;;7.32;2.15;;;;;;;11.14;100.00;100004.78;5069661;28;20047;-50
2023/03/23 06:24:28;;;;;;;10.23;2.15;;;;;;;11.17;100.00;100019.50;5069695;28;20051;-52
2023/03/23 06:26:57;;;;;;;7.38;1.90;;;;;;;11.16;100.00;100021.28;5071590;28;20049;-52
2023/03/23 06:29:24;;;;;;;5.85;2.00;;;;;;;11.16;100.00;100002.84;5071810;28;20045;-52
2023/03/23 06:31:56;;;;;;;10.10;1.88;;;;;;;11.22;100.00;100027.00;5072715;28;20052;-49
2023/03/23 06:34:23;;;;;;;8.25;1.92;;;;;;;11.29;100.00;100017.66;5072213;28;20072;-50
2023/03/23 06:36:50;;;;;;;6.55;1.80;;;;;;;11.28;100.00;100021.25;5068513;28;20040;-50
2023/03/23 06:39:17;;;;;;;6.45;1.80;;;;;;;11.29;100.00;100029.03;5068949;28;20049;-51
2023/03/23 06:41:44;;;;;;;7.03;1.52;;;;;;;11.31;100.00;100039.44;5071778;28;20049;-53
2023/03/23 06:44:13;;;;;;;9.30;1.67;;;;;;;11.30;100.00;100025.44;5072866;28;20414;-52
2023/03/23 06:46:40;;;;;;;5.60;1.77;;;;;;;11.25;100.00;100017.06;5071548;28;20645;-53
2023/03/23 06:49:08;;;;;;;9.23;1.92;;;;;;;11.29;100.00;100042.19;5066978;28;20737;-52
2023/03/23 06:51:36;;;;;;;8.60;1.75;;;;;;;11.32;100.00;100036.66;5068355;28;20151;-49
2023/03/23 06:54:03;;;;;;;7.55;1.70;;;;;;;11.28;100.00;100045.78;5069122;28;20125;-51
2023/03/23 06:56:30;;;;;;;9.45;1.80;;;;;;;11.28;100.00;100042.31;5069260;28;20044;-51
2023/03/23 06:58:57;;;;;;;8.25;1.92;;;;;;;11.29;100.00;100046.63;5067804;28;20040;-51
2023/03/23 07:01:27;;;;;;;6.50;1.67;;;;;;;11.28;100.00;100043.13;5072155;28;20465;-53
2023/03/23 07:03:55;;;;;;;10.27;2.25;;;;;;;11.28;100.00;100051.03;5066560;28;20146;-53
2023/03/23 07:06:23;;;;;;;8.40;2.55;;;;;;;11.30;100.00;100057.03;5069321;28;20049;-52
2023/03/23 07:08:50;;;;;;;10.25;2.50;;;;;;;11.30;100.00;100054.41;5069514;28;20094;-51
2023/03/23 07:11:17;;;;;;;11.43;2.08;;;;;;;11.33;100.00;100059.41;5071379;28;20047;-52
2023/03/23 07:13:44;;;;;;;8.02;2.40;;;;;;;11.29;100.00;100055.34;5050983;28;20452;-49
2023/03/23 07:16:12;;;;;;;9.63;2.00;;;;;;;11.31;100.00;100063.94;5068240;28;20048;-52
2023/03/23 07:18:40;;;;;;;8.32;2.22;;;;;;;11.32;100.00;100065.63;5067096;28;20406;-49
2023/03/23 07:21:07;;;;;;;10.23;1.83;;;;;;;11.31;100.00;100063.94;5067757;28;20040;-52
2023/03/23 07:23:35;;;;;;;7.75;2.30;;;;;;;11.33;100.00;100072.56;5067477;28;20052;-52
2023/03/23 07:26:03;;;;;;;7.03;1.88;;;;;;;11.32;100.00;100080.59;5068873;28;20054;-52
2023/03/23 07:28:30;;;;;;;9.40;2.10;;;;;;;11.34;100.00;100078.66;5070667;28;20059;-51
2023/03/23 07:30:57;;;;;;;8.60;1.77;;;;;;;11.36;100.00;100075.91;5070520;28;20102;-52
2023/03/23 07:33:24;;;;;;;11.18;2.38;;;;;;;11.32;100.00;100075.31;5067761;28;20056;-53
2023/03/23 07:35:53;;;;;;;10.23;2.40;;;;;;;11.36;100.00;100086.44;5067474;28;20504;-52
2023/03/23 07:38:20;;;;;;;10.07;2.13;;;;;;;11.37;100.00;100091.59;5067202;28;20054;-52
2023/03/23 07:40:48;;;;;;;7.10;1.60;;;;;;;11.33;100.00;100091.00;5071741;28;20044;-53
2023/03/23 07:43:15;;;;;;;7.03;1.75;;;;;;;11.35;100.00;100095.31;5070461;28;20144;-53
2023/03/23 07:45:42;;;;;;;7.15;1.50;;;;;;;11.30;100.00;100096.50;5054037;28;20127;-52
2023/03/23 07:48:09;;;;;;;4.75;1.33;;;;;;;11.32;100.00;100096.38;5072218;28;20045;-48
2023/03/23 07:50:37;;;;;;;5.72;1.60;;;;;;;11.31;100.00;100102.59;5068408;28;20196;-52
2023/03/23 07:53:05;;;;;;;7.35;1.60;;;;;;;11.28;100.00;100093.16;5066316;28;20432;-53
2023/03/23 07:55:33;;;;;;;7.50;2.13;;;;;;;11.27;100.00;100098.53;5068239;28;20041;-52
2023/03/23 07:58:00;;;;;;;7.85;1.73;;;;;;;11.26;100.00;100105.63;5069399;28;20048;-50
2023/03/23 08:00:28;;;;;;;5.13;1.55;;;;;;;11.20;100.00;100115.78;5070447;28;20051;-52
2023/03/23 08:02:58;;;;;;;9.95;2.13;;;;;;;11.19;100.00;100112.31;5068851;28;20057;-52
2023/03/23 08:05:27;;;;;;;4.28;1.52;;;;;;;11.07;100.00;100114.13;5068221;28;20052;-51
2023/03/23 08:07:55;;;;;;;10.02;1.77;;;;;;;11.07;100.00;100122.03;5071174;28;20110;-52
2023/03/23 08:10:24;;;;;;;8.13;1.75;;;;;;;11.08;100.00;100122.84;5067572;28;20098;-51
2023/03/23 08:12:53;;;;;;;6.30;1.67;;;;;;;11.07;100.00;100118.53;5068584;28;20491;-51
2023/03/23 08:15:21;;;;;;;10.15;2.20;;;;;;;10.97;100.00;100124.50;5067762;28;20052;-54
2023/03/23 08:17:50;;;;;;;5.97;1.90;;;;;;;10.87;100.00;100128.84;5067314;28;20490;-53
2023/03/23 08:20:18;;;;;;;6.30;1.70;;;;;;;10.87;100.00;100122.75;5052652;28;20045;-52
2023/03/23 08:22:52;;;;;;;7.25;2.08;;;;;;;10.92;100.00;100133.72;5069854;28;20369;-53
2023/03/23 08:25:20;;;;;;;7.20;1.80;;;;;;;10.94;100.00;100137.91;5067814;28;20157;-53
2023/03/23 08:27:49;;;;;;;8.13;2.20;;;;;;;10.97;100.00;100128.94;5067291;28;20036;-53
2023/03/23 08:30:19;;;;;;;9.75;2.65;;;;;;;10.99;100.00;100133.13;5068252;28;20463;-53
2023/03/23 08:32:46;;;;;;;7.78;2.20;;;;;;;10.96;100.00;100136.03;5066464;28;20058;-52
2023/03/23 08:35:14;;;;;;;9.27;2.60;;;;;;;11.01;100.00;100143.53;5070464;28;20041;-52
2023/03/23 08:37:42;;;;;;;8.98;2.50;;;;;;;11.04;100.00;100145.94;5068069;28;20037;-53
2023/03/23 08:40:14;;;;;;;10.55;2.25;;;;;;;11.09;100.00;100156.94;5069270;28;20135;-53
2023/03/23 08:42:43;;;;;;;7.38;2.35;;;;;;;11.08;100.00;100147.34;5072813;28;20139;-52
2023/03/23 08:45:15;;;;;;;7.80;1.75;;;;;;;11.02;100.00;100144.41;5073912;28;20044;-52
2023/03/23 08:47:44;;;;;;;8.60;1.85;;;;;;;11.01;100.00;100143.53;5070170;28;20044;-52
2023/03/23 08:50:13;;;;;;;4.22;1.77;;;;;;;11.09;100.00;100135.06;5071232;28;20120;-54
2023/03/23 08:52:41;;;;;;;8.05;1.70;;;;;;;11.15;100.00;100138.03;5072033;28;20110;-52
2023/03/23 08:55:12;;;;;;;6.45;1.67;;;;;;;11.13;100.00;100139.94;5053335;28;20049;-51
2023/03/23 08:57:40;;;;;;;5.70;1.50;;;;;;;11.20;100.00;100140.31;5072982;28;20041;-53
2023/03/23 09:00:17;;;;;;;5.93;1.50;;;;;;;11.23;100.00;100150.59;5073175;28;20076;-52
2023/03/23 09:02:47;;;;;;;4.57;1.38;;;;;;;11.24;100.00;100161.97;5071046;28;20040;-51
2023/03/23 09:05:14;;;;;;;6.10;1.67;;;;;;;11.22;100.00;100156.81;5071340;28;20110;-53
2023/03/23 09:07:48;;;;;;;4.85;1.30;;;;;;;11.23;100.00;100161.09;5072542;28;20491;-53
2023/03/23 09:10:18;;;;;;;4.90;1.42;;;;;;;11.29;100.00;100165.06;5070579;28;20060;-52
2023/03/23 09:12:46;;;;;;;5.80;2.17;;;;;;;11.28;100.00;100166.84;5070777;28;20052;-53
2023/03/23 09:15:17;;;;;;;6.03;1.67;;;;;;;11.36;100.00;100175.94;5073554;28;20476;-51
2023/03/23 09:17:47;;;;;;;5.43;1.33;;;;;;;11.36;100.00;100168.91;5074693;28;20044;-53
2023/03/23 09:20:20;;;;;;;3.60;1.40;;;;;;;11.35;100.00;100169.84;5074431;28;20040;-53
2023/03/23 09:22:49;;;;;;;3.83;1.25;;;;;;;11.38;100.00;100166.13;5074716;28;20052;-53
2023/03/23 09:25:20;;;;;;;3.47;1.20;;;;;;;11.49;100.00;100163.47;5074411;28;20048;-54
2023/03/23 09:27:56;;;;;;;6.30;1.45;;;;;;;11.49;100.00;100181.91;5055216;28;20464;-53
2023/03/23 09:30:26;;;;;;;4.68;1.08;;;;;;;11.46;100.00;100175.09;5069951;28;20047;-52
2023/03/23 09:32:55;;;;;;;4.30;0.98;;;;;;;11.55;100.00;100173.53;5072109;28;20045;-53
2023/03/23 09:35:22;;;;;;;6.15;1.65;;;;;;;11.78;100.00;100170.81;5070231;28;20090;-53
2023/03/23 09:37:51;;;;;;;6.30;1.67;;;;;;;11.92;100.00;100175.00;5069867;28;20040;-52
2023/03/23 09:40:22;;;;;;;4.63;1.38;;;;;;;11.97;100.00;100172.84;5074070;28;20091;-51
2023/03/23 09:43:03;;;;;;;5.20;1.58;;;;;;;11.94;100.00;100186.25;5055881;28;20059;-52
2023/03/23 09:45:37;;;;;;;6.03;1.33;;;;;;;11.97;100.00;100180.75;5070397;28;20059;-52
2023/03/23 09:48:32;;;;;;;7.15;1.63;;;;;;;12.15;100.00;100179.25;5070335;28;20687;-51
2023/03/23 09:51:04;;;;;;;7.90;1.48;;;;;;;12.41;100.00;100170.16;5072926;28;20048;-51
2023/03/23 09:53:37;;;;;;;6.28;1.33;;;;;;;12.72;100.00;100175.47;5070058;28;20399;-50
2023/03/23 09:56:10;;;;;;;6.97;1.70;;;;;;;13.03;100.00;100178.97;5069949;28;20492;-54
2023/03/23 09:58:45;;;;;;;6.95;1.58;;;;;;;13.30;100.00;100183.66;5074009;28;20048;-52
2023/03/23 10:01:18;;;;;;;8.48;2.05;;;;;;;13.37;100.00;100183.97;5073848;28;20123;-52
2023/03/23 10:03:47;;;;;;;9.32;1.60;;;;;;;13.60;100.00;100195.16;5072725;28;20048;-49
2023/03/23 10:06:18;;;;;;;11.80;2.53;;;;;;;13.93;100.00;100194.97;5072475;28;20110;-50
2023/03/23 10:08:48;;;;;;;10.40;2.17;;;;;;;14.06;100.00;100194.69;5073355;28;20094;-52
2023/03/23 10:11:24;;;;;;;10.05;2.10;;;;;;;14.20;100.00;100184.53;5068971;28;20445;-51
2023/03/23 10:14:06;;;;;;;10.38;1.80;;;;;;;14.30;100.00;100188.97;5068926;28;20048;-49
2023/03/23 10:16:38;;;;;;;11.48;2.17;;;;;;;14.44;100.00;100198.28;5070002;28;20080;-51
2023/03/23 10:19:13;;;;;;;9.30;2.03;;;;;;;14.68;100.00;100198.72;5072884;28;20480;-48
2023/03/23 10:21:44;;;;;;;13.10;2.05;;;;;;;14.85;100.00;100214.84;5072191;28;20403;-47
2023/03/23 10:24:15;;;;;;;11.05;1.88;;;;;;;14.77;100.00;100190.91;5072243;28;20045;-47
2023/03/23 10:26:52;;;;;;;8.50;2.13;;;;;;;14.86;100.00;100196.19;5073413;28;20052;-50
2023/03/23 10:29:23;;;;;;;11.70;2.00;;;;;;;15.10;100.00;100197.47;5052184;28;20056;-47
2023/03/23 10:31:58;;;;;;;7.55;1.55;;;;;;;15.54;100.00;100202.16;5069181;28;20053;-50
2023/03/23 10:34:32;;;;;;;10.82;1.70;;;;;;;15.79;100.00;100213.03;5072027;28;20047;-49
2023/03/23 10:37:06;;;;;;;9.38;1.90;;;;;;;15.98;100.00;100207.66;5071775;28;20052;-48
2023/03/23 10:39:44;;;;;;;11.93;2.10;;;;;;;15.77;100.00;100210.53;5073186;28;20047;-48
2023/03/23 10:42:12;;;;;;;11.00;1.90;;;;;;;15.97;100.00;100208.63;5071679;28;20052;-50
2023/03/23 10:44:42;;;;;;;9.07;1.83;;;;;;;15.71;100.00;100217.28;5070727;28;20503;-51
2023/03/23 10:47:10;;;;;;;8.93;2.17;;;;;;;16.04;100.00;100212.34;5068188;28;20044;-51
2023/03/23 10:49:43;;;;;;;12.98;2.38;;;;;;;16.07;100.00;100215.69;5069113;28;20040;-47
2023/03/23 10:52:29;;;;;;;9.50;1.92;;;;;;;16.05;100.00;100214.00;5070833;28;20094;-52
2023/03/23 10:54:58;;;;;;;10.80;2.10;;;;;;;15.73;100.00;100214.47;5071080;28;20049;-48
2023/03/23 10:57:29;;;;;;;9.40;1.95;;;;;;;16.15;100.00;100207.81;5067900;28;20076;-50
2023/03/23 11:00:05;;;;;;;11.30;2.08;;;;;;;16.19;100.00;100223.25;5069897;28;20040;-51
2023/03/23 11:02:37;;;;;;;11.23;2.30;;;;;;;16.35;100.00;100219.91;5071558;28;20068;-48
2023/03/23 11:05:16;;;;;;;10.95;2.15;;;;;;;16.54;100.00;100220.75;5070590;28;20037;-48
2023/03/23 11:07:51;;;;;;;6.75;1.48;;;;;;;16.56;100.00;100216.09;5051528;28;20106;-50
2023/03/23 11:10:25;;;;;;;8.52;1.92;;;;;;;16.80;100.00;100210.16;5069073;28;20139;-50
2023/03/23 11:13:00;;;;;;;8.48;1.90;;;;;;;16.87;100.00;100213.84;5068242;28;20535;-48
2023/03/23 11:15:30;;;;;;;7.03;2.33;;;;;;;17.15;100.00;100223.47;5054226;28;20452;-47
2023/03/23 11:18:02;;;;;;;8.40;1.92;;;;;;;17.32;100.00;100216.44;5072549;28;20538;-52
2023/03/23 11:20:37;;;;;;;11.23;2.17;;;;;;;17.70;100.00;100217.75;5072464;28;20041;-51
2023/03/23 11:23:12;;;;;;;8.20;2.20;;;;;;;17.74;100.00;100210.28;5071351;28;20097;-49
2023/03/23 11:25:58;;;;;;;7.50;1.80;;;;;;;18.23;100.00;100205.06;5068000;28;20106;-49
2023/03/23 11:28:30;;;;;;;8.45;1.73;;;;;;;18.38;100.00;100202.56;5069873;28;20423;-57
2023/03/23 11:30:59;;;;;;;6.93;1.98;;;;;;;18.13;100.00;100209.69;5072333;28;20420;-58
2023/03/23 11:33:29;;;;;;;8.32;2.00;;;;;;;18.12;99.86;100209.88;5070493;28;20521;-58